sensor_id;sensor_type;location;lat;lon;timestamp;P1;durP1;ratioP1;P2;durP2;ratioP2
30729;SDS011;17476;48.458;7.928;2024-02-28T00:00:00;0.20;;;0.20;;
30729;SDS011;17476;48.458;7.928;2024-02-28T00:02:26;0.20;;;0.20;;
30729;SDS011;17476;48.458;7.928;2024-02-28T00:04:53;0.20;;;0.20;;
30729;SDS011;17476;48.458;7.928;2024-02-28T00:07:18;0.20;;;0.20;;
30729;SDS011;17476;48.458;7.928;2024-02-28T00:09:44;0.30;;;0.30;;
30729;SDS011;17476;48.458;7.928;2024-02-28T00:12:10;0.20;;;0.20;;
30729;SDS011;17476;48.458;7.928;2024-02-28T00:14:36;0.20;;;0.20;;
30729;SDS011;17476;48.458;7.928;2024-02-28T00:17:01;0.20;;;0.20;;
30729;SDS011;17476;48.458;7.928;2024-02-28T00:19:27;0.20;;;0.20;;
30729;SDS011;17476;48.458;7.928;2024-02-28T00:21:53;0.30;;;0.30;;
30729;SDS011;17476;48.458;7.928;2024-02-28T00:24:19;0.20;;;0.20;;
30729;SDS011;17476;48.458;7.928;2024-02-28T00:26:44;0.20;;;0.20;;
30729;SDS011;17476;48.458;7.928;2024-02-28T00:29:10;0.20;;;0.20;;
30729;SDS011;17476;48.458;7.928;2024-02-28T00:31:36;0.30;;;0.30;;
30729;SDS011;17476;48.458;7.928;2024-02-28T00:34:01;0.20;;;0.20;;
30729;SDS011;17476;48.458;7.928;2024-02-28T00:36:27;0.27;;;0.27;;
30729;SDS011;17476;48.458;7.928;2024-02-28T00:38:53;0.20;;;0.20;;
30729;SDS011;17476;48.458;7.928;2024-02-28T00:41:19;0.20;;;0.20;;
30729;SDS011;17476;48.458;7.928;2024-02-28T00:43:44;0.20;;;0.20;;
30729;SDS011;17476;48.458;7.928;2024-02-28T00:46:10;0.20;;;0.20;;
30729;SDS011;17476;48.458;7.928;2024-02-28T00:48:37;0.20;;;0.20;;
30729;SDS011;17476;48.458;7.928;2024-02-28T00:51:04;0.20;;;0.20;;
30729;SDS011;17476;48.458;7.928;2024-02-28T00:53:30;0.23;;;0.23;;
30729;SDS011;17476;48.458;7.928;2024-02-28T00:55:56;0.20;;;0.20;;
30729;SDS011;17476;48.458;7.928;2024-02-28T00:58:21;0.30;;;0.30;;
30729;SDS011;17476;48.458;7.928;2024-02-28T01:00:47;0.30;;;0.30;;
30729;SDS011;17476;48.458;7.928;2024-02-28T01:03:13;0.23;;;0.23;;
30729;SDS011;17476;48.458;7.928;2024-02-28T01:05:40;0.30;;;0.30;;
30729;SDS011;17476;48.458;7.928;2024-02-28T01:08:07;0.23;;;0.23;;
30729;SDS011;17476;48.458;7.928;2024-02-28T01:10:35;0.30;;;0.30;;
30729;SDS011;17476;48.458;7.928;2024-02-28T01:13:01;0.20;;;0.20;;
30729;SDS011;17476;48.458;7.928;2024-02-28T01:15:27;0.30;;;0.30;;
30729;SDS011;17476;48.458;7.928;2024-02-28T01:17:53;0.10;;;0.10;;
30729;SDS011;17476;48.458;7.928;2024-02-28T01:20:19;0.30;;;0.30;;
30729;SDS011;17476;48.458;7.928;2024-02-28T01:22:44;0.20;;;0.20;;
30729;SDS011;17476;48.458;7.928;2024-02-28T01:25:10;0.30;;;0.30;;
30729;SDS011;17476;48.458;7.928;2024-02-28T01:27:36;0.30;;;0.30;;
30729;SDS011;17476;48.458;7.928;2024-02-28T01:30:02;0.13;;;0.13;;
30729;SDS011;17476;48.458;7.928;2024-02-28T01:32:29;0.30;;;0.30;;
30729;SDS011;17476;48.458;7.928;2024-02-28T01:34:55;0.30;;;0.30;;
30729;SDS011;17476;48.458;7.928;2024-02-28T01:37:21;0.20;;;0.20;;
30729;SDS011;17476;48.458;7.928;2024-02-28T01:39:46;0.20;;;0.20;;
30729;SDS011;17476;48.458;7.928;2024-02-28T01:42:13;0.20;;;0.20;;
30729;SDS011;17476;48.458;7.928;2024-02-28T01:44:44;0.20;;;0.20;;
30729;SDS011;17476;48.458;7.928;2024-02-28T01:47:12;0.20;;;0.20;;
30729;SDS011;17476;48.458;7.928;2024-02-28T01:49:39;0.13;;;0.13;;
30729;SDS011;17476;48.458;7.928;2024-02-28T01:52:07;0.27;;;0.27;;
30729;SDS011;17476;48.458;7.928;2024-02-28T01:54:34;0.30;;;0.30;;
30729;SDS011;17476;48.458;7.928;2024-02-28T01:57:00;0.20;;;0.20;;
30729;SDS011;17476;48.458;7.928;2024-02-28T01:59:27;0.20;;;0.20;;
30729;SDS011;17476;48.458;7.928;2024-02-28T02:01:55;0.20;;;0.20;;
30729;SDS011;17476;48.458;7.928;2024-02-28T02:04:21;0.30;;;0.30;;
30729;SDS011;17476;48.458;7.928;2024-02-28T02:06:46;0.20;;;0.20;;
30729;SDS011;17476;48.458;7.928;2024-02-28T02:09:14;0.30;;;0.30;;
30729;SDS011;17476;48.458;7.928;2024-02-28T02:11:41;0.27;;;0.27;;
30729;SDS011;17476;48.458;7.928;2024-02-28T02:14:06;0.20;;;0.20;;
30729;SDS011;17476;48.458;7.928;2024-02-28T02:16:32;0.20;;;0.20;;
30729;SDS011;17476;48.458;7.928;2024-02-28T02:18:58;0.20;;;0.20;;
30729;SDS011;17476;48.458;7.928;2024-02-28T02:21:26;0.30;;;0.30;;
30729;SDS011;17476;48.458;7.928;2024-02-28T02:23:55;0.30;;;0.30;;
30729;SDS011;17476;48.458;7.928;2024-02-28T02:26:21;0.30;;;0.30;;
30729;SDS011;17476;48.458;7.928;2024-02-28T02:28:47;0.30;;;0.30;;
30729;SDS011;17476;48.458;7.928;2024-02-28T02:31:13;0.30;;;0.30;;
30729;SDS011;17476;48.458;7.928;2024-02-28T02:33:39;0.30;;;0.30;;
30729;SDS011;17476;48.458;7.928;2024-02-28T02:36:05;0.20;;;0.20;;
30729;SDS011;17476;48.458;7.928;2024-02-28T02:38:31;0.20;;;0.20;;
30729;SDS011;17476;48.458;7.928;2024-02-28T02:40:56;0.30;;;0.30;;
30729;SDS011;17476;48.458;7.928;2024-02-28T02:43:22;0.10;;;0.10;;
30729;SDS011;17476;48.458;7.928;2024-02-28T02:45:48;0.20;;;0.20;;
30729;SDS011;17476;48.458;7.928;2024-02-28T02:48:14;0.20;;;0.20;;
30729;SDS011;17476;48.458;7.928;2024-02-28T02:50:40;0.20;;;0.20;;
30729;SDS011;17476;48.458;7.928;2024-02-28T02:53:07;0.20;;;0.20;;
30729;SDS011;17476;48.458;7.928;2024-02-28T02:55:34;0.20;;;0.20;;
30729;SDS011;17476;48.458;7.928;2024-02-28T02:58:00;0.20;;;0.20;;
30729;SDS011;17476;48.458;7.928;2024-02-28T03:00:27;0.30;;;0.30;;
30729;SDS011;17476;48.458;7.928;2024-02-28T03:02:53;0.30;;;0.30;;
30729;SDS011;17476;48.458;7.928;2024-02-28T03:05:19;0.20;;;0.20;;
30729;SDS011;17476;48.458;7.928;2024-02-28T03:07:45;0.20;;;0.20;;
30729;SDS011;17476;48.458;7.928;2024-02-28T03:10:11;0.20;;;0.20;;
30729;SDS011;17476;48.458;7.928;2024-02-28T03:12:36;0.30;;;0.30;;
30729;SDS011;17476;48.458;7.928;2024-02-28T03:15:02;0.20;;;0.20;;
30729;SDS011;17476;48.458;7.928;2024-02-28T03:17:29;0.23;;;0.23;;
30729;SDS011;17476;48.458;7.928;2024-02-28T03:19:55;0.30;;;0.30;;
30729;SDS011;17476;48.458;7.928;2024-02-28T03:22:21;0.10;;;0.10;;
30729;SDS011;17476;48.458;7.928;2024-02-28T03:24:50;0.30;;;0.30;;
30729;SDS011;17476;48.458;7.928;2024-02-28T03:27:15;0.20;;;0.20;;
30729;SDS011;17476;48.458;7.928;2024-02-28T03:29:41;0.20;;;0.20;;
30729;SDS011;17476;48.458;7.928;2024-02-28T03:32:07;0.20;;;0.20;;
30729;SDS011;17476;48.458;7.928;2024-02-28T03:34:33;0.20;;;0.20;;
30729;SDS011;17476;48.458;7.928;2024-02-28T03:36:59;0.20;;;0.20;;
30729;SDS011;17476;48.458;7.928;2024-02-28T03:39:25;0.20;;;0.20;;
30729;SDS011;17476;48.458;7.928;2024-02-28T03:41:51;0.20;;;0.20;;
30729;SDS011;17476;48.458;7.928;2024-02-28T03:44:16;0.20;;;0.20;;
30729;SDS011;17476;48.458;7.928;2024-02-28T03:46:42;0.30;;;0.30;;
30729;SDS011;17476;48.458;7.928;2024-02-28T03:49:08;0.20;;;0.20;;
30729;SDS011;17476;48.458;7.928;2024-02-28T03:51:39;0.20;;;0.20;;
30729;SDS011;17476;48.458;7.928;2024-02-28T03:54:06;0.20;;;0.20;;
30729;SDS011;17476;48.458;7.928;2024-02-28T03:56:32;0.20;;;0.20;;
30729;SDS011;17476;48.458;7.928;2024-02-28T03:58:57;0.20;;;0.20;;
30729;SDS011;17476;48.458;7.928;2024-02-28T04:01:23;0.30;;;0.30;;
30729;SDS011;17476;48.458;7.928;2024-02-28T04:03:49;0.10;;;0.10;;
30729;SDS011;17476;48.458;7.928;2024-02-28T04:06:15;0.20;;;0.20;;
30729;SDS011;17476;48.458;7.928;2024-02-28T04:08:40;0.30;;;0.30;;
30729;SDS011;17476;48.458;7.928;2024-02-28T04:11:07;0.20;;;0.20;;
30729;SDS011;17476;48.458;7.928;2024-02-28T04:13:32;0.20;;;0.20;;
30729;SDS011;17476;48.458;7.928;2024-02-28T04:15:58;0.20;;;0.20;;
30729;SDS011;17476;48.458;7.928;2024-02-28T04:18:24;0.30;;;0.30;;
30729;SDS011;17476;48.458;7.928;2024-02-28T04:20:50;0.20;;;0.20;;
30729;SDS011;17476;48.458;7.928;2024-02-28T04:23:16;0.30;;;0.30;;
30729;SDS011;17476;48.458;7.928;2024-02-28T04:25:42;0.20;;;0.20;;
30729;SDS011;17476;48.458;7.928;2024-02-28T04:28:08;0.30;;;0.30;;
30729;SDS011;17476;48.458;7.928;2024-02-28T04:30:34;0.23;;;0.23;;
30729;SDS011;17476;48.458;7.928;2024-02-28T04:33:00;0.30;;;0.30;;
30729;SDS011;17476;48.458;7.928;2024-02-28T04:35:26;0.30;;;0.30;;
30729;SDS011;17476;48.458;7.928;2024-02-28T04:37:52;0.30;;;0.30;;
30729;SDS011;17476;48.458;7.928;2024-02-28T04:40:18;0.20;;;0.20;;
30729;SDS011;17476;48.458;7.928;2024-02-28T04:42:43;0.20;;;0.20;;
30729;SDS011;17476;48.458;7.928;2024-02-28T04:45:09;0.20;;;0.20;;
30729;SDS011;17476;48.458;7.928;2024-02-28T04:47:36;0.23;;;0.23;;
30729;SDS011;17476;48.458;7.928;2024-02-28T04:50:02;0.20;;;0.20;;
30729;SDS011;17476;48.458;7.928;2024-02-28T04:52:30;0.20;;;0.20;;
30729;SDS011;17476;48.458;7.928;2024-02-28T04:54:59;0.20;;;0.20;;
30729;SDS011;17476;48.458;7.928;2024-02-28T04:57:25;0.30;;;0.30;;
30729;SDS011;17476;48.458;7.928;2024-02-28T04:59:51;0.30;;;0.30;;
30729;SDS011;17476;48.458;7.928;2024-02-28T05:02:19;0.30;;;0.30;;
30729;SDS011;17476;48.458;7.928;2024-02-28T05:04:50;0.30;;;0.30;;
30729;SDS011;17476;48.458;7.928;2024-02-28T05:07:17;0.20;;;0.20;;
30729;SDS011;17476;48.458;7.928;2024-02-28T05:09:43;0.20;;;0.20;;
30729;SDS011;17476;48.458;7.928;2024-02-28T05:12:08;0.30;;;0.30;;
30729;SDS011;17476;48.458;7.928;2024-02-28T05:14:34;0.20;;;0.20;;
30729;SDS011;17476;48.458;7.928;2024-02-28T05:17:00;0.30;;;0.30;;
30729;SDS011;17476;48.458;7.928;2024-02-28T05:19:26;0.23;;;0.23;;
30729;SDS011;17476;48.458;7.928;2024-02-28T05:21:51;0.30;;;0.30;;
30729;SDS011;17476;48.458;7.928;2024-02-28T05:24:17;0.30;;;0.30;;
30729;SDS011;17476;48.458;7.928;2024-02-28T05:26:43;0.20;;;0.20;;
30729;SDS011;17476;48.458;7.928;2024-02-28T05:29:08;0.30;;;0.30;;
30729;SDS011;17476;48.458;7.928;2024-02-28T05:31:34;0.30;;;0.30;;
30729;SDS011;17476;48.458;7.928;2024-02-28T05:34:01;0.20;;;0.20;;
30729;SDS011;17476;48.458;7.928;2024-02-28T05:36:28;0.20;;;0.20;;
30729;SDS011;17476;48.458;7.928;2024-02-28T05:38:56;0.20;;;0.20;;
30729;SDS011;17476;48.458;7.928;2024-02-28T05:41:24;0.10;;;0.10;;
30729;SDS011;17476;48.458;7.928;2024-02-28T05:43:50;0.20;;;0.20;;
30729;SDS011;17476;48.458;7.928;2024-02-28T05:46:16;0.20;;;0.20;;
30729;SDS011;17476;48.458;7.928;2024-02-28T05:48:44;0.20;;;0.20;;
30729;SDS011;17476;48.458;7.928;2024-02-28T05:51:11;0.20;;;0.20;;
30729;SDS011;17476;48.458;7.928;2024-02-28T05:53:38;0.30;;;0.30;;
30729;SDS011;17476;48.458;7.928;2024-02-28T05:56:05;0.20;;;0.20;;
30729;SDS011;17476;48.458;7.928;2024-02-28T05:58:42;0.17;;;0.17;;
30729;SDS011;17476;48.458;7.928;2024-02-28T06:01:09;0.20;;;0.20;;
30729;SDS011;17476;48.458;7.928;2024-02-28T06:03:36;0.30;;;0.30;;
30729;SDS011;17476;48.458;7.928;2024-02-28T06:06:03;0.20;;;0.20;;
30729;SDS011;17476;48.458;7.928;2024-02-28T06:08:37;0.17;;;0.17;;
30729;SDS011;17476;48.458;7.928;2024-02-28T06:11:04;0.20;;;0.20;;
30729;SDS011;17476;48.458;7.928;2024-02-28T06:13:33;0.30;;;0.30;;
30729;SDS011;17476;48.458;7.928;2024-02-28T06:15:59;0.30;;;0.30;;
30729;SDS011;17476;48.458;7.928;2024-02-28T06:18:25;0.27;;;0.27;;
30729;SDS011;17476;48.458;7.928;2024-02-28T06:20:55;0.20;;;0.20;;
30729;SDS011;17476;48.458;7.928;2024-02-28T06:23:22;0.20;;;0.20;;
30729;SDS011;17476;48.458;7.928;2024-02-28T06:25:48;0.20;;;0.20;;
30729;SDS011;17476;48.458;7.928;2024-02-28T06:28:14;0.30;;;0.30;;
30729;SDS011;17476;48.458;7.928;2024-02-28T06:30:40;0.30;;;0.30;;
30729;SDS011;17476;48.458;7.928;2024-02-28T06:33:08;0.30;;;0.30;;
30729;SDS011;17476;48.458;7.928;2024-02-28T06:35:34;0.17;;;0.17;;
30729;SDS011;17476;48.458;7.928;2024-02-28T06:38:00;0.30;;;0.30;;
30729;SDS011;17476;48.458;7.928;2024-02-28T06:40:26;0.20;;;0.20;;
30729;SDS011;17476;48.458;7.928;2024-02-28T06:42:53;0.30;;;0.30;;
30729;SDS011;17476;48.458;7.928;2024-02-28T06:45:19;0.13;;;0.13;;
30729;SDS011;17476;48.458;7.928;2024-02-28T06:47:46;0.20;;;0.20;;
30729;SDS011;17476;48.458;7.928;2024-02-28T06:50:12;0.20;;;0.20;;
30729;SDS011;17476;48.458;7.928;2024-02-28T06:52:37;0.20;;;0.20;;
30729;SDS011;17476;48.458;7.928;2024-02-28T06:55:03;0.20;;;0.20;;
30729;SDS011;17476;48.458;7.928;2024-02-28T06:57:35;0.20;;;0.20;;
30729;SDS011;17476;48.458;7.928;2024-02-28T07:00:03;0.30;;;0.30;;
30729;SDS011;17476;48.458;7.928;2024-02-28T07:02:34;0.30;;;0.30;;
30729;SDS011;17476;48.458;7.928;2024-02-28T07:05:00;0.30;;;0.30;;
30729;SDS011;17476;48.458;7.928;2024-02-28T07:07:28;0.20;;;0.20;;
30729;SDS011;17476;48.458;7.928;2024-02-28T07:09:54;0.30;;;0.30;;
30729;SDS011;17476;48.458;7.928;2024-02-28T07:12:19;0.20;;;0.20;;
30729;SDS011;17476;48.458;7.928;2024-02-28T07:14:45;0.30;;;0.30;;
30729;SDS011;17476;48.458;7.928;2024-02-28T07:17:11;0.33;;;0.33;;
30729;SDS011;17476;48.458;7.928;2024-02-28T07:19:37;0.30;;;0.30;;
30729;SDS011;17476;48.458;7.928;2024-02-28T07:22:03;0.20;;;0.20;;
30729;SDS011;17476;48.458;7.928;2024-02-28T07:24:30;0.20;;;0.20;;
30729;SDS011;17476;48.458;7.928;2024-02-28T07:26:56;0.30;;;0.30;;
30729;SDS011;17476;48.458;7.928;2024-02-28T07:29:22;0.30;;;0.30;;
30729;SDS011;17476;48.458;7.928;2024-02-28T07:31:49;0.30;;;0.30;;
30729;SDS011;17476;48.458;7.928;2024-02-28T07:34:15;0.30;;;0.30;;
30729;SDS011;17476;48.458;7.928;2024-02-28T07:36:41;0.30;;;0.30;;
30729;SDS011;17476;48.458;7.928;2024-02-28T07:39:07;0.40;;;0.40;;
30729;SDS011;17476;48.458;7.928;2024-02-28T07:41:37;0.37;;;0.37;;
30729;SDS011;17476;48.458;7.928;2024-02-28T07:44:06;0.30;;;0.30;;
30729;SDS011;17476;48.458;7.928;2024-02-28T07:46:33;0.30;;;0.30;;
30729;SDS011;17476;48.458;7.928;2024-02-28T07:49:00;0.40;;;0.40;;
30729;SDS011;17476;48.458;7.928;2024-02-28T07:51:27;0.30;;;0.30;;
30729;SDS011;17476;48.458;7.928;2024-02-28T07:53:53;0.33;;;0.33;;
30729;SDS011;17476;48.458;7.928;2024-02-28T07:56:20;0.30;;;0.30;;
30729;SDS011;17476;48.458;7.928;2024-02-28T07:58:46;0.30;;;0.30;;
30729;SDS011;17476;48.458;7.928;2024-02-28T08:01:15;0.20;;;0.20;;
30729;SDS011;17476;48.458;7.928;2024-02-28T08:03:41;0.30;;;0.30;;
30729;SDS011;17476;48.458;7.928;2024-02-28T08:06:08;0.30;;;0.30;;
30729;SDS011;17476;48.458;7.928;2024-02-28T08:08:34;0.30;;;0.30;;
30729;SDS011;17476;48.458;7.928;2024-02-28T08:11:00;0.30;;;0.30;;
30729;SDS011;17476;48.458;7.928;2024-02-28T08:13:26;0.10;;;0.10;;
30729;SDS011;17476;48.458;7.928;2024-02-28T08:15:53;0.30;;;0.30;;
30729;SDS011;17476;48.458;7.928;2024-02-28T08:18:19;0.30;;;0.30;;
30729;SDS011;17476;48.458;7.928;2024-02-28T08:20:45;0.30;;;0.30;;
30729;SDS011;17476;48.458;7.928;2024-02-28T08:23:11;0.30;;;0.30;;
30729;SDS011;17476;48.458;7.928;2024-02-28T08:25:37;0.20;;;0.20;;
30729;SDS011;17476;48.458;7.928;2024-02-28T08:28:03;0.20;;;0.20;;
30729;SDS011;17476;48.458;7.928;2024-02-28T08:30:29;0.30;;;0.30;;
30729;SDS011;17476;48.458;7.928;2024-02-28T08:32:56;0.20;;;0.20;;
30729;SDS011;17476;48.458;7.928;2024-02-28T08:35:23;0.20;;;0.20;;
30729;SDS011;17476;48.458;7.928;2024-02-28T08:37:49;0.30;;;0.30;;
30729;SDS011;17476;48.458;7.928;2024-02-28T08:40:15;0.20;;;0.20;;
30729;SDS011;17476;48.458;7.928;2024-02-28T08:42:40;0.20;;;0.20;;
30729;SDS011;17476;48.458;7.928;2024-02-28T08:45:06;0.10;;;0.10;;
30729;SDS011;17476;48.458;7.928;2024-02-28T08:47:33;0.20;;;0.20;;
30729;SDS011;17476;48.458;7.928;2024-02-28T08:49:58;0.20;;;0.20;;
30729;SDS011;17476;48.458;7.928;2024-02-28T08:52:24;0.17;;;0.17;;
30729;SDS011;17476;48.458;7.928;2024-02-28T08:54:50;0.20;;;0.20;;
30729;SDS011;17476;48.458;7.928;2024-02-28T08:57:16;0.20;;;0.20;;
30729;SDS011;17476;48.458;7.928;2024-02-28T08:59:42;0.17;;;0.17;;
30729;SDS011;17476;48.458;7.928;2024-02-28T09:02:08;0.20;;;0.20;;
30729;SDS011;17476;48.458;7.928;2024-02-28T09:04:36;0.20;;;0.20;;
30729;SDS011;17476;48.458;7.928;2024-02-28T09:07:01;0.20;;;0.20;;
30729;SDS011;17476;48.458;7.928;2024-02-28T09:09:27;0.30;;;0.30;;
30729;SDS011;17476;48.458;7.928;2024-02-28T09:11:55;0.20;;;0.20;;
30729;SDS011;17476;48.458;7.928;2024-02-28T09:14:20;0.20;;;0.20;;
30729;SDS011;17476;48.458;7.928;2024-02-28T09:16:47;0.20;;;0.20;;
30729;SDS011;17476;48.458;7.928;2024-02-28T09:19:12;0.20;;;0.20;;
30729;SDS011;17476;48.458;7.928;2024-02-28T09:21:38;0.10;;;0.10;;
30729;SDS011;17476;48.458;7.928;2024-02-28T09:24:04;0.10;;;0.10;;
30729;SDS011;17476;48.458;7.928;2024-02-28T09:26:30;0.20;;;0.20;;
30729;SDS011;17476;48.458;7.928;2024-02-28T09:28:56;0.20;;;0.20;;
30729;SDS011;17476;48.458;7.928;2024-02-28T09:31:22;0.30;;;0.30;;
30729;SDS011;17476;48.458;7.928;2024-02-28T09:33:47;0.20;;;0.20;;
30729;SDS011;17476;48.458;7.928;2024-02-28T09:36:16;0.20;;;0.20;;
30729;SDS011;17476;48.458;7.928;2024-02-28T09:38:42;0.20;;;0.20;;
30729;SDS011;17476;48.458;7.928;2024-02-28T09:41:09;0.10;;;0.10;;
30729;SDS011;17476;48.458;7.928;2024-02-28T09:43:41;0.10;;;0.10;;
30729;SDS011;17476;48.458;7.928;2024-02-28T09:46:07;0.10;;;0.10;;
30729;SDS011;17476;48.458;7.928;2024-02-28T09:48:40;0.20;;;0.20;;
30729;SDS011;17476;48.458;7.928;2024-02-28T09:51:06;0.10;;;0.10;;
30729;SDS011;17476;48.458;7.928;2024-02-28T09:53:37;0.10;;;0.10;;
30729;SDS011;17476;48.458;7.928;2024-02-28T09:56:03;0.30;;;0.30;;
30729;SDS011;17476;48.458;7.928;2024-02-28T09:58:31;0.20;;;0.20;;
30729;SDS011;17476;48.458;7.928;2024-02-28T10:00:59;0.20;;;0.20;;
30729;SDS011;17476;48.458;7.928;2024-02-28T10:03:28;0.20;;;0.20;;
30729;SDS011;17476;48.458;7.928;2024-02-28T10:05:54;0.10;;;0.10;;
30729;SDS011;17476;48.458;7.928;2024-02-28T10:08:20;0.10;;;0.10;;
30729;SDS011;17476;48.458;7.928;2024-02-28T10:10:46;0.10;;;0.10;;
30729;SDS011;17476;48.458;7.928;2024-02-28T10:13:13;0.10;;;0.10;;
30729;SDS011;17476;48.458;7.928;2024-02-28T10:15:41;0.10;;;0.10;;
30729;SDS011;17476;48.458;7.928;2024-02-28T10:18:07;0.10;;;0.10;;
30729;SDS011;17476;48.458;7.928;2024-02-28T10:20:33;0.10;;;0.10;;
30729;SDS011;17476;48.458;7.928;2024-02-28T10:23:03;0.10;;;0.10;;
30729;SDS011;17476;48.458;7.928;2024-02-28T10:25:33;0.10;;;0.10;;
30729;SDS011;17476;48.458;7.928;2024-02-28T10:28:06;0.10;;;0.10;;
30729;SDS011;17476;48.458;7.928;2024-02-28T10:30:32;0.10;;;0.10;;
30729;SDS011;17476;48.458;7.928;2024-02-28T10:32:58;0.03;;;0.03;;
30729;SDS011;17476;48.458;7.928;2024-02-28T10:35:23;0.10;;;0.10;;
30729;SDS011;17476;48.458;7.928;2024-02-28T10:37:52;0.10;;;0.10;;
30729;SDS011;17476;48.458;7.928;2024-02-28T10:40:19;0.10;;;0.10;;
30729;SDS011;17476;48.458;7.928;2024-02-28T10:42:46;0.10;;;0.10;;
30729;SDS011;17476;48.458;7.928;2024-02-28T10:45:13;0.10;;;0.10;;
30729;SDS011;17476;48.458;7.928;2024-02-28T10:47:42;0.00;;;0.00;;
30729;SDS011;17476;48.458;7.928;2024-02-28T10:50:08;0.07;;;0.07;;
30729;SDS011;17476;48.458;7.928;2024-02-28T10:52:34;0.00;;;0.00;;
30729;SDS011;17476;48.458;7.928;2024-02-28T10:55:08;0.10;;;0.10;;
30729;SDS011;17476;48.458;7.928;2024-02-28T10:57:34;0.00;;;0.00;;
30729;SDS011;17476;48.458;7.928;2024-02-28T11:00:04;0.10;;;0.10;;
30729;SDS011;17476;48.458;7.928;2024-02-28T11:02:31;0.10;;;0.10;;
30729;SDS011;17476;48.458;7.928;2024-02-28T11:04:57;0.10;;;0.10;;
30729;SDS011;17476;48.458;7.928;2024-02-28T11:07:26;0.10;;;0.10;;
30729;SDS011;17476;48.458;7.928;2024-02-28T11:09:55;0.10;;;0.10;;
30729;SDS011;17476;48.458;7.928;2024-02-28T11:12:28;0.00;;;0.00;;
30729;SDS011;17476;48.458;7.928;2024-02-28T11:15:01;0.10;;;0.10;;
30729;SDS011;17476;48.458;7.928;2024-02-28T11:17:31;0.00;;;0.00;;
30729;SDS011;17476;48.458;7.928;2024-02-28T11:19:58;0.10;;;0.10;;
30729;SDS011;17476;48.458;7.928;2024-02-28T11:22:27;0.10;;;0.10;;
30729;SDS011;17476;48.458;7.928;2024-02-28T11:24:53;0.10;;;0.10;;
30729;SDS011;17476;48.458;7.928;2024-02-28T11:27:20;0.10;;;0.10;;
30729;SDS011;17476;48.458;7.928;2024-02-28T11:29:47;0.03;;;0.03;;
30729;SDS011;17476;48.458;7.928;2024-02-28T11:32:14;0.10;;;0.10;;
30729;SDS011;17476;48.458;7.928;2024-02-28T11:34:41;0.00;;;0.00;;
30729;SDS011;17476;48.458;7.928;2024-02-28T11:37:08;0.10;;;0.10;;
30729;SDS011;17476;48.458;7.928;2024-02-28T11:39:34;0.10;;;0.10;;
30729;SDS011;17476;48.458;7.928;2024-02-28T11:42:11;0.10;;;0.10;;
30729;SDS011;17476;48.458;7.928;2024-02-28T11:44:41;0.10;;;0.10;;
30729;SDS011;17476;48.458;7.928;2024-02-28T11:47:10;0.00;;;0.00;;
30729;SDS011;17476;48.458;7.928;2024-02-28T11:49:39;0.10;;;0.10;;
30729;SDS011;17476;48.458;7.928;2024-02-28T11:52:05;0.10;;;0.10;;
30729;SDS011;17476;48.458;7.928;2024-02-28T11:54:31;0.10;;;0.10;;
30729;SDS011;17476;48.458;7.928;2024-02-28T11:56:57;0.10;;;0.10;;
30729;SDS011;17476;48.458;7.928;2024-02-28T11:59:23;0.10;;;0.10;;
30729;SDS011;17476;48.458;7.928;2024-02-28T12:01:48;0.10;;;0.10;;
30729;SDS011;17476;48.458;7.928;2024-02-28T12:04:15;0.10;;;0.10;;
30729;SDS011;17476;48.458;7.928;2024-02-28T12:06:41;0.00;;;0.00;;
30729;SDS011;17476;48.458;7.928;2024-02-28T12:09:08;0.00;;;0.00;;
30729;SDS011;17476;48.458;7.928;2024-02-28T12:11:37;0.00;;;0.00;;
30729;SDS011;17476;48.458;7.928;2024-02-28T12:14:06;0.10;;;0.10;;
30729;SDS011;17476;48.458;7.928;2024-02-28T12:16:34;0.10;;;0.10;;
30729;SDS011;17476;48.458;7.928;2024-02-28T12:19:08;0.10;;;0.10;;
30729;SDS011;17476;48.458;7.928;2024-02-28T12:21:36;0.10;;;0.10;;
30729;SDS011;17476;48.458;7.928;2024-02-28T12:24:03;0.00;;;0.00;;
30729;SDS011;17476;48.458;7.928;2024-02-28T12:26:34;0.10;;;0.10;;
30729;SDS011;17476;48.458;7.928;2024-02-28T12:29:00;0.00;;;0.00;;
30729;SDS011;17476;48.458;7.928;2024-02-28T12:31:27;0.10;;;0.10;;
30729;SDS011;17476;48.458;7.928;2024-02-28T12:33:53;0.00;;;0.00;;
30729;SDS011;17476;48.458;7.928;2024-02-28T12:36:19;0.00;;;0.00;;
30729;SDS011;17476;48.458;7.928;2024-02-28T12:38:46;0.10;;;0.10;;
30729;SDS011;17476;48.458;7.928;2024-02-28T12:41:12;0.00;;;0.00;;
30729;SDS011;17476;48.458;7.928;2024-02-28T12:43:38;0.10;;;0.10;;
30729;SDS011;17476;48.458;7.928;2024-02-28T12:46:04;0.10;;;0.10;;
30729;SDS011;17476;48.458;7.928;2024-02-28T12:48:37;0.00;;;0.00;;
30729;SDS011;17476;48.458;7.928;2024-02-28T12:51:04;0.10;;;0.10;;
30729;SDS011;17476;48.458;7.928;2024-02-28T12:53:33;0.03;;;0.03;;
30729;SDS011;17476;48.458;7.928;2024-02-28T12:55:59;0.10;;;0.10;;
30729;SDS011;17476;48.458;7.928;2024-02-28T12:58:26;0.10;;;0.10;;
30729;SDS011;17476;48.458;7.928;2024-02-28T13:00:51;0.00;;;0.00;;
30729;SDS011;17476;48.458;7.928;2024-02-28T13:03:18;0.10;;;0.10;;
30729;SDS011;17476;48.458;7.928;2024-02-28T13:05:43;0.10;;;0.10;;
30729;SDS011;17476;48.458;7.928;2024-02-28T13:08:09;0.10;;;0.10;;
30729;SDS011;17476;48.458;7.928;2024-02-28T13:10:35;0.10;;;0.10;;
30729;SDS011;17476;48.458;7.928;2024-02-28T13:13:06;0.00;;;0.00;;
30729;SDS011;17476;48.458;7.928;2024-02-28T13:15:32;0.10;;;0.10;;
30729;SDS011;17476;48.458;7.928;2024-02-28T13:17:59;0.10;;;0.10;;
30729;SDS011;17476;48.458;7.928;2024-02-28T13:20:26;0.10;;;0.10;;
30729;SDS011;17476;48.458;7.928;2024-02-28T13:22:52;0.10;;;0.10;;
30729;SDS011;17476;48.458;7.928;2024-02-28T13:25:18;0.10;;;0.10;;
30729;SDS011;17476;48.458;7.928;2024-02-28T13:27:45;0.03;;;0.03;;
30729;SDS011;17476;48.458;7.928;2024-02-28T13:30:11;0.00;;;0.00;;
30729;SDS011;17476;48.458;7.928;2024-02-28T13:32:38;0.00;;;0.00;;
30729;SDS011;17476;48.458;7.928;2024-02-28T13:35:04;0.10;;;0.10;;
30729;SDS011;17476;48.458;7.928;2024-02-28T13:37:30;0.00;;;0.00;;
30729;SDS011;17476;48.458;7.928;2024-02-28T13:39:58;0.00;;;0.00;;
30729;SDS011;17476;48.458;7.928;2024-02-28T13:42:24;0.00;;;0.00;;
30729;SDS011;17476;48.458;7.928;2024-02-28T13:44:50;0.00;;;0.00;;
30729;SDS011;17476;48.458;7.928;2024-02-28T13:47:16;0.10;;;0.10;;
30729;SDS011;17476;48.458;7.928;2024-02-28T13:49:42;0.00;;;0.00;;
30729;SDS011;17476;48.458;7.928;2024-02-28T13:52:08;0.00;;;0.00;;
30729;SDS011;17476;48.458;7.928;2024-02-28T13:54:34;0.00;;;0.00;;
30729;SDS011;17476;48.458;7.928;2024-02-28T13:57:00;0.00;;;0.00;;
30729;SDS011;17476;48.458;7.928;2024-02-28T13:59:26;0.00;;;0.00;;
30729;SDS011;17476;48.458;7.928;2024-02-28T14:01:52;0.00;;;0.00;;
30729;SDS011;17476;48.458;7.928;2024-02-28T14:04:18;0.00;;;0.00;;
30729;SDS011;17476;48.458;7.928;2024-02-28T14:06:44;0.00;;;0.00;;
30729;SDS011;17476;48.458;7.928;2024-02-28T14:09:11;0.00;;;0.00;;
30729;SDS011;17476;48.458;7.928;2024-02-28T14:11:36;0.00;;;0.00;;
30729;SDS011;17476;48.458;7.928;2024-02-28T14:14:02;0.00;;;0.00;;
30729;SDS011;17476;48.458;7.928;2024-02-28T14:16:29;0.00;;;0.00;;
30729;SDS011;17476;48.458;7.928;2024-02-28T14:18:57;0.00;;;0.00;;
30729;SDS011;17476;48.458;7.928;2024-02-28T14:21:23;0.00;;;0.00;;
30729;SDS011;17476;48.458;7.928;2024-02-28T14:23:50;0.00;;;0.00;;
30729;SDS011;17476;48.458;7.928;2024-02-28T14:26:16;0.00;;;0.00;;
30729;SDS011;17476;48.458;7.928;2024-02-28T14:28:42;0.00;;;0.00;;
30729;SDS011;17476;48.458;7.928;2024-02-28T14:31:08;0.00;;;0.00;;
30729;SDS011;17476;48.458;7.928;2024-02-28T14:33:34;0.00;;;0.00;;
30729;SDS011;17476;48.458;7.928;2024-02-28T14:36:01;0.00;;;0.00;;
30729;SDS011;17476;48.458;7.928;2024-02-28T14:38:30;0.00;;;0.00;;
30729;SDS011;17476;48.458;7.928;2024-02-28T14:40:56;0.00;;;0.00;;
30729;SDS011;17476;48.458;7.928;2024-02-28T14:43:22;0.00;;;0.00;;